createdAt,value
2023-02-06T00:00:11.159Z,9.07
2023-02-06T00:02:13.757Z,9.15
2023-02-06T00:04:16.802Z,9.90
2023-02-06T00:06:19.663Z,10.68
2023-02-06T00:08:22.241Z,10.57
2023-02-06T00:10:24.941Z,10.02
2023-02-06T00:12:31.110Z,10.48
2023-02-06T00:14:33.683Z,10.20
2023-02-06T00:16:37.268Z,8.37
2023-02-06T00:18:39.774Z,9.63
2023-02-06T00:20:42.277Z,9.57
2023-02-06T00:22:44.737Z,10.20
2023-02-06T00:24:47.306Z,9.45
2023-02-06T00:26:49.662Z,9.35
2023-02-06T00:28:57.171Z,9.60
2023-02-06T00:31:06.068Z,9.48
2023-02-06T00:33:14.422Z,9.15
2023-02-06T00:35:17.713Z,9.98
2023-02-06T00:37:20.210Z,9.48
2023-02-06T00:39:22.778Z,8.52
2023-02-06T00:41:25.345Z,9.50
2023-02-06T00:43:27.789Z,8.75
2023-02-06T00:45:35.163Z,9.63
2023-02-06T00:47:38.040Z,10.23
2023-02-06T00:49:40.662Z,10.30
2023-02-06T00:51:43.089Z,9.55
2023-02-06T00:53:45.615Z,10.38
2023-02-06T00:55:49.043Z,10.13
2023-02-06T00:57:51.508Z,10.48
2023-02-06T00:59:54.507Z,10.20
2023-02-06T01:02:00.540Z,10.30
2023-02-06T01:04:03.494Z,11.00
2023-02-06T01:06:06.183Z,10.63
2023-02-06T01:08:08.711Z,12.05
2023-02-06T01:10:12.661Z,13.32
2023-02-06T01:14:17.583Z,12.15
2023-02-06T01:16:23.547Z,11.25
2023-02-06T01:18:30.612Z,10.95
2023-02-06T01:20:33.239Z,12.45
2023-02-06T01:22:36.221Z,11.50
2023-02-06T01:24:38.785Z,11.13
2023-02-06T01:26:41.232Z,11.98
2023-02-06T01:28:48.404Z,11.45
2023-02-06T01:30:51.476Z,11.38
2023-02-06T01:32:53.937Z,9.68
2023-02-06T01:34:59.105Z,8.93
2023-02-06T01:37:01.667Z,8.43
2023-02-06T01:39:04.552Z,8.10
2023-02-06T01:41:08.186Z,8.52
2023-02-06T01:43:18.378Z,8.45
2023-02-06T01:45:38.135Z,8.60
2023-02-06T01:47:41.851Z,8.63
2023-02-06T01:49:48.555Z,9.02
2023-02-06T01:51:56.568Z,8.80
2023-02-06T01:54:03.854Z,9.45
2023-02-06T01:56:07.945Z,9.25
2023-02-06T01:58:15.286Z,9.73
2023-02-06T02:00:19.134Z,9.30
2023-02-06T02:02:26.675Z,8.65
2023-02-06T02:04:33.017Z,9.02
2023-02-06T02:06:35.952Z,8.95
2023-02-06T02:08:44.198Z,9.85
2023-02-06T02:10:47.666Z,9.25
2023-02-06T02:12:51.441Z,10.02
2023-02-06T02:14:55.610Z,8.43
2023-02-06T02:17:10.790Z,10.30
2023-02-06T02:19:41.545Z,9.00
2023-02-06T02:22:24.191Z,8.25
2023-02-06T02:24:51.786Z,8.65
2023-02-06T02:27:18.882Z,8.25
2023-02-06T02:29:56.689Z,9.05
2023-02-06T02:32:27.519Z,8.27
2023-02-06T02:34:52.243Z,7.72
2023-02-06T02:37:03.241Z,8.15
2023-02-06T02:39:13.283Z,8.43
2023-02-06T02:41:19.669Z,8.45
2023-02-06T02:43:37.398Z,8.35
2023-02-06T02:45:46.523Z,8.63
2023-02-06T02:47:56.020Z,9.55
2023-02-06T02:50:03.281Z,8.05
2023-02-06T02:52:07.263Z,8.65
2023-02-06T02:54:10.576Z,8.60
2023-02-06T02:56:17.879Z,8.13
2023-02-06T02:58:25.596Z,8.30
2023-02-06T03:00:29.679Z,8.50
2023-02-06T03:02:36.983Z,8.15
2023-02-06T03:04:50.285Z,8.25
2023-02-06T03:07:12.243Z,9.55
2023-02-06T03:09:25.687Z,9.43
2023-02-06T03:11:28.594Z,9.48
2023-02-06T03:13:35.362Z,10.60
2023-02-06T03:15:49.159Z,10.52
2023-02-06T03:20:02.606Z,10.85
2023-02-06T03:22:07.876Z,9.32
2023-02-06T03:24:13.819Z,9.05
2023-02-06T03:26:20.904Z,10.27
2023-02-06T03:28:26.970Z,9.55
2023-02-06T03:30:30.449Z,9.77
2023-02-06T03:32:36.854Z,9.63
2023-02-06T03:34:44.901Z,8.25
2023-02-06T03:36:47.852Z,8.55
2023-02-06T03:38:54.006Z,9.73
2023-02-06T03:41:00.249Z,9.65
2023-02-06T03:43:04.832Z,9.32
2023-02-06T03:45:12.860Z,9.57
2023-02-06T03:47:19.134Z,10.45
2023-02-06T03:49:25.449Z,9.40
2023-02-06T03:51:33.420Z,10.38
2023-02-06T03:53:38.338Z,10.05
2023-02-06T03:55:45.551Z,10.15
2023-02-06T03:57:51.702Z,10.05
2023-02-06T03:59:54.464Z,10.52
2023-02-06T04:01:58.836Z,9.98
2023-02-06T04:04:04.481Z,10.02
2023-02-06T04:06:16.398Z,10.57
2023-02-06T04:08:19.116Z,11.02
2023-02-06T04:10:21.450Z,10.10
2023-02-06T04:12:26.871Z,10.40
2023-02-06T04:14:29.566Z,9.93
2023-02-06T04:16:32.135Z,11.38
2023-02-06T04:18:34.497Z,10.93
2023-02-06T04:20:41.007Z,10.77
2023-02-06T04:22:43.451Z,9.70
2023-02-06T04:24:45.840Z,11.75
2023-02-06T04:26:48.315Z,11.02
2023-02-06T04:28:54.088Z,10.00
2023-02-06T04:30:56.552Z,9.88
2023-02-06T04:32:59.164Z,10.35
2023-02-06T04:35:01.840Z,10.05
2023-02-06T04:37:06.043Z,11.30
2023-02-06T04:39:08.877Z,10.75
2023-02-06T04:41:11.778Z,10.20
2023-02-06T04:43:14.326Z,9.95
2023-02-06T04:45:19.721Z,10.02
2023-02-06T04:47:22.304Z,9.50
2023-02-06T04:49:24.956Z,10.50
2023-02-06T04:51:27.500Z,10.98
2023-02-06T04:53:31.244Z,11.07
2023-02-06T04:55:35.896Z,11.40
2023-02-06T04:57:38.896Z,10.82
2023-02-06T04:59:41.405Z,11.80
2023-02-06T05:01:46.490Z,10.20
2023-02-06T05:03:51.230Z,11.35
2023-02-06T05:05:53.980Z,11.25
2023-02-06T05:07:57.469Z,11.57
2023-02-06T05:10:02.107Z,12.00
2023-02-06T05:12:08.307Z,10.23
2023-02-06T05:14:10.842Z,11.02
2023-02-06T05:16:16.453Z,11.38
2023-02-06T05:18:21.842Z,11.30
2023-02-06T05:20:24.354Z,10.52
2023-02-06T05:22:27.687Z,10.73
2023-02-06T05:24:30.191Z,11.25
2023-02-06T05:26:32.533Z,11.70
2023-02-06T05:28:35.055Z,11.45
2023-02-06T05:30:37.586Z,10.85
2023-02-06T05:32:42.492Z,12.18
2023-02-06T05:34:47.523Z,11.82
2023-02-06T05:36:50.057Z,11.40
2023-02-06T05:38:52.517Z,11.40
2023-02-06T05:40:55.226Z,11.20
2023-02-06T05:42:57.848Z,11.25
2023-02-06T05:45:00.281Z,10.93
2023-02-06T05:47:02.895Z,11.93
2023-02-06T05:49:05.498Z,11.60
2023-02-06T05:51:10.623Z,13.25
2023-02-06T05:53:13.742Z,13.55
2023-02-06T05:55:18.397Z,10.90
2023-02-06T05:57:20.818Z,11.60
2023-02-06T05:59:23.499Z,11.75
2023-02-06T06:01:26.075Z,11.60
2023-02-06T06:03:28.664Z,12.30
2023-02-06T06:05:31.236Z,10.98
2023-02-06T06:07:36.301Z,11.57
2023-02-06T06:09:38.965Z,10.85
2023-02-06T06:11:44.155Z,12.73
2023-02-06T06:13:55.395Z,11.02
2023-02-06T06:15:57.988Z,12.35
2023-02-06T06:18:01.318Z,12.95
2023-02-06T06:20:06.810Z,11.77
2023-02-06T06:22:10.428Z,12.05
2023-02-06T06:24:17.488Z,11.10
2023-02-06T06:26:19.967Z,13.02
2023-02-06T06:28:22.338Z,11.10
2023-02-06T06:30:27.031Z,12.07
2023-02-06T06:32:29.578Z,11.70
2023-02-06T06:34:32.265Z,11.10
2023-02-06T06:36:34.997Z,11.82
2023-02-06T06:38:37.824Z,11.48
2023-02-06T06:40:42.875Z,11.00
2023-02-06T06:42:45.382Z,11.13
2023-02-06T06:44:47.974Z,11.80
2023-02-06T06:46:50.493Z,13.38
2023-02-06T06:48:53.008Z,11.45
2023-02-06T06:50:55.607Z,11.68
2023-02-06T06:52:58.172Z,12.38
2023-02-06T06:55:00.660Z,11.10
2023-02-06T06:57:05.627Z,11.90
2023-02-06T06:59:10.606Z,11.00
2023-02-06T07:01:13.315Z,11.27
2023-02-06T07:03:15.973Z,11.98
2023-02-06T07:05:19.184Z,11.63
2023-02-06T07:07:22.038Z,12.32
2023-02-06T07:09:30.991Z,11.95
2023-02-06T07:11:33.672Z,11.35
2023-02-06T07:13:38.980Z,13.30
2023-02-06T07:15:41.787Z,12.18
2023-02-06T07:17:44.380Z,14.90
2023-02-06T07:19:48.279Z,12.48
2023-02-06T07:21:50.701Z,12.40
2023-02-06T07:23:53.143Z,12.40
2023-02-06T07:26:02.242Z,11.73
2023-02-06T07:28:05.742Z,12.07
2023-02-06T07:30:12.475Z,11.13
2023-02-06T07:32:15.271Z,11.95
2023-02-06T07:34:17.671Z,12.10
2023-02-06T07:36:20.225Z,10.80
2023-02-06T07:38:22.718Z,13.13
2023-02-06T07:40:27.667Z,12.77
2023-02-06T07:42:36.070Z,13.05
2023-02-06T07:44:50.587Z,12.82
2023-02-06T07:46:55.605Z,13.23
2023-02-06T07:48:58.355Z,12.25
2023-02-06T07:51:05.962Z,10.95
2023-02-06T07:53:08.958Z,12.80
2023-02-06T07:55:11.720Z,12.38
2023-02-06T07:57:14.367Z,12.05
2023-02-06T07:59:34.961Z,12.05
2023-02-06T08:01:37.477Z,12.10
2023-02-06T08:03:42.520Z,12.25
2023-02-06T08:05:44.874Z,12.48
2023-02-06T08:07:47.704Z,11.80
2023-02-06T08:09:50.612Z,12.43
2023-02-06T08:11:53.099Z,13.20
2023-02-06T08:14:15.553Z,11.45
2023-02-06T08:16:39.333Z,13.10
2023-02-06T08:18:48.743Z,10.95
2023-02-06T08:20:51.116Z,12.18
2023-02-06T08:22:54.349Z,10.63
2023-02-06T08:25:01.651Z,10.90
2023-02-06T08:27:07.176Z,11.38
2023-02-06T08:29:14.532Z,11.18
2023-02-06T08:31:19.638Z,12.02
2023-02-06T08:33:22.110Z,11.35
2023-02-06T08:35:27.241Z,12.45
2023-02-06T08:37:49.576Z,9.80
2023-02-06T08:39:52.166Z,10.45
2023-02-06T08:41:54.574Z,11.55
2023-02-06T08:43:59.026Z,10.82
2023-02-06T08:48:04.473Z,13.82
2023-02-06T08:50:07.264Z,12.18
2023-02-06T08:52:12.348Z,10.88
2023-02-06T08:54:17.410Z,10.65
2023-02-06T08:56:19.923Z,11.20
2023-02-06T08:58:23.385Z,10.83
2023-02-06T09:00:31.238Z,10.95
2023-02-06T09:02:34.203Z,10.25
2023-02-06T09:04:37.870Z,11.32
2023-02-06T09:06:42.745Z,10.38
2023-02-06T09:08:59.063Z,11.85
2023-02-06T09:11:15.800Z,13.30
2023-02-06T09:13:18.219Z,11.15
2023-02-06T09:15:29.778Z,9.77
2023-02-06T09:17:32.311Z,9.82
2023-02-06T09:19:34.836Z,10.88
2023-02-06T09:21:37.758Z,11.20
2023-02-06T09:23:44.716Z,13.63
2023-02-06T09:27:52.770Z,12.60
2023-02-06T09:29:55.293Z,11.95
2023-02-06T09:31:57.900Z,11.93
2023-02-06T09:34:04.449Z,11.70
2023-02-06T09:36:16.274Z,11.55
2023-02-06T09:38:18.771Z,10.35
2023-02-06T09:40:26.990Z,10.75
2023-02-06T09:42:35.872Z,10.40
2023-02-06T09:44:44.565Z,10.18
2023-02-06T09:46:51.262Z,9.43
2023-02-06T09:48:54.961Z,12.00
2023-02-06T09:51:05.791Z,10.25
2023-02-06T09:53:21.006Z,9.20
2023-02-06T09:55:33.299Z,9.65
2023-02-06T09:57:48.478Z,9.38
2023-02-06T09:59:58.401Z,10.55
2023-02-06T10:02:24.420Z,10.52
2023-02-06T10:04:42.767Z,9.77
2023-02-06T10:06:51.661Z,8.93
2023-02-06T10:09:02.893Z,10.68
2023-02-06T10:11:13.433Z,12.38
2023-02-06T10:13:23.955Z,10.90
2023-02-06T10:15:33.625Z,11.13
2023-02-06T10:17:41.901Z,9.77
2023-02-06T10:19:50.772Z,10.30
2023-02-06T10:22:00.173Z,9.82
2023-02-06T10:24:08.601Z,10.43
2023-02-06T10:26:18.917Z,10.13
2023-02-06T10:28:47.983Z,11.13
2023-02-06T10:31:21.556Z,10.73
2023-02-06T10:33:45.675Z,9.07
2023-02-06T10:35:55.654Z,8.70
2023-02-06T10:38:19.523Z,9.57
2023-02-06T10:40:33.703Z,9.40
2023-02-06T10:42:46.437Z,9.90
2023-02-06T10:45:06.601Z,9.60
2023-02-06T10:47:26.339Z,10.60
2023-02-06T10:49:33.598Z,9.48
2023-02-06T10:51:38.010Z,9.25
2023-02-06T10:53:49.070Z,7.43
2023-02-06T10:55:55.771Z,8.52
2023-02-06T10:58:05.513Z,6.70
2023-02-06T11:00:17.517Z,6.75
2023-02-06T11:02:23.931Z,6.10
2023-02-06T11:04:34.454Z,5.53
2023-02-06T11:06:40.189Z,5.20
2023-02-06T11:08:45.497Z,4.90
2023-02-06T11:10:48.310Z,5.53
2023-02-06T11:12:56.500Z,4.80
2023-02-06T11:15:03.366Z,5.53
2023-02-06T11:17:08.420Z,4.63
2023-02-06T11:19:17.573Z,5.57
2023-02-06T11:21:48.809Z,5.22
2023-02-06T11:24:09.064Z,5.65
2023-02-06T11:26:14.531Z,5.15
2023-02-06T11:28:20.547Z,5.00
2023-02-06T11:30:31.055Z,4.53
2023-02-06T11:32:41.121Z,4.35
2023-02-06T11:34:53.691Z,5.20
2023-02-06T11:36:58.642Z,5.30
2023-02-06T11:39:03.878Z,5.05
2023-02-06T11:41:18.180Z,6.03
2023-02-06T11:43:22.850Z,4.57
2023-02-06T11:45:27.999Z,4.47
2023-02-06T11:47:32.550Z,4.72
2023-02-06T11:49:37.587Z,5.93
2023-02-06T11:51:49.890Z,4.90
2023-02-06T11:53:57.036Z,4.10
2023-02-06T11:56:04.247Z,4.10
2023-02-06T11:58:20.013Z,4.13
2023-02-06T12:00:23.710Z,4.43
2023-02-06T12:02:29.597Z,4.03
2023-02-06T12:04:38.554Z,3.72
2023-02-06T12:06:42.095Z,3.85
2023-02-06T12:08:48.317Z,5.18
2023-02-06T12:10:56.099Z,3.17
2023-02-06T12:13:02.422Z,4.15
2023-02-06T12:15:36.126Z,3.88
2023-02-06T12:17:37.511Z,4.45
2023-02-06T12:19:49.609Z,3.70
2023-02-06T12:21:56.379Z,4.32
2023-02-06T12:24:02.139Z,3.60
2023-02-06T12:26:08.863Z,4.68
2023-02-06T12:28:16.157Z,4.45
2023-02-06T12:30:29.756Z,3.40
2023-02-06T12:32:38.503Z,3.33
2023-02-06T12:34:53.757Z,3.63
2023-02-06T12:37:10.829Z,3.03
2023-02-06T12:39:19.995Z,3.38
2023-02-06T12:41:39.126Z,3.10
2023-02-06T12:43:44.357Z,3.30
2023-02-06T12:45:52.929Z,2.95
2023-02-06T12:48:02.338Z,2.97
2023-02-06T12:50:16.327Z,3.42
2023-02-06T12:52:24.824Z,3.22
2023-02-06T12:54:35.064Z,3.10
2023-02-06T12:56:42.368Z,3.30
2023-02-06T12:58:53.073Z,3.17
2023-02-06T13:01:29.290Z,3.13
2023-02-06T13:03:40.769Z,3.72
2023-02-06T13:05:49.050Z,4.03
2023-02-06T13:07:53.854Z,3.17
2023-02-06T13:10:05.989Z,3.50
2023-02-06T13:12:13.865Z,3.28
2023-02-06T13:14:19.579Z,3.00
2023-02-06T13:16:22.044Z,3.28
2023-02-06T13:18:53.928Z,3.53
2023-02-06T13:21:17.950Z,3.55
2023-02-06T13:23:24.350Z,4.05
2023-02-06T13:25:53.705Z,3.92
2023-02-06T13:27:57.542Z,4.38
2023-02-06T13:30:37.882Z,2.92
2023-02-06T13:32:48.822Z,3.20
2023-02-06T13:34:57.296Z,2.80
2023-02-06T13:37:20.435Z,3.38
2023-02-06T13:39:29.006Z,3.10
2023-02-06T13:41:37.315Z,3.05
2023-02-06T13:43:41.080Z,3.42
2023-02-06T13:45:47.866Z,3.38
2023-02-06T13:48:38.411Z,3.60
2023-02-06T13:51:05.330Z,3.20
2023-02-06T13:53:34.800Z,3.10
2023-02-06T13:55:50.806Z,3.53
2023-02-06T13:58:16.300Z,2.92
2023-02-06T14:00:22.489Z,2.95
2023-02-06T14:02:31.210Z,3.75
2023-02-06T14:04:33.768Z,3.28
2023-02-06T14:06:48.429Z,3.15
2023-02-06T14:09:03.021Z,3.00
2023-02-06T14:11:21.822Z,3.90
2023-02-06T14:13:36.664Z,3.33
2023-02-06T14:15:47.628Z,2.85
2023-02-06T14:18:09.050Z,3.13
2023-02-06T14:20:24.885Z,3.47
2023-02-06T14:22:34.425Z,2.70
2023-02-06T14:25:04.142Z,3.28
2023-02-06T14:27:22.567Z,2.80
2023-02-06T14:29:36.166Z,3.03
2023-02-06T14:31:51.871Z,3.03
2023-02-06T14:34:13.796Z,3.38
2023-02-06T14:36:29.159Z,3.10
2023-02-06T14:39:03.558Z,2.80
2023-02-06T14:41:09.185Z,3.08
2023-02-06T14:43:16.601Z,3.00
2023-02-06T14:45:29.311Z,3.38
2023-02-06T14:47:42.375Z,3.72
2023-02-06T14:49:45.666Z,2.75
2023-02-06T14:51:50.756Z,3.28
2023-02-06T14:53:55.832Z,3.15
2023-02-06T14:56:16.292Z,3.22
2023-02-06T14:58:24.442Z,3.70
2023-02-06T15:00:27.900Z,3.20
2023-02-06T15:02:32.158Z,4.53
2023-02-06T15:04:43.858Z,2.92
2023-02-06T15:06:52.804Z,3.30
2023-02-06T15:08:55.263Z,3.70
2023-02-06T15:10:59.273Z,3.15
2023-02-06T15:13:05.027Z,3.00
2023-02-06T15:15:18.959Z,4.28
2023-02-06T15:17:24.710Z,3.40
2023-02-06T15:19:28.845Z,3.35
2023-02-06T15:21:31.219Z,3.13
2023-02-06T15:23:55.457Z,3.55
2023-02-06T15:26:03.554Z,3.28
2023-02-06T15:28:12.821Z,3.88
2023-02-06T15:30:20.203Z,3.42
2023-02-06T15:32:27.981Z,3.53
2023-02-06T15:34:31.710Z,3.88
2023-02-06T15:36:36.860Z,4.40
2023-02-06T15:38:39.960Z,3.67
2023-02-06T15:40:45.281Z,4.47
2023-02-06T15:42:48.947Z,3.92
2023-02-06T15:44:54.975Z,3.85
2023-02-06T15:46:57.999Z,3.45
2023-02-06T15:49:00.648Z,3.50
2023-02-06T15:51:18.590Z,3.30
2023-02-06T15:53:29.119Z,3.40
2023-02-06T15:55:34.313Z,4.25
2023-02-06T15:57:40.801Z,4.03
2023-02-06T15:59:44.061Z,4.25
2023-02-06T16:01:50.218Z,3.67
2023-02-06T16:03:57.244Z,4.35
2023-02-06T16:06:00.384Z,4.63
2023-02-06T16:08:04.882Z,3.65
2023-02-06T16:10:20.318Z,4.38
2023-02-06T16:12:23.490Z,4.55
2023-02-06T16:14:34.250Z,4.45
2023-02-06T16:16:36.744Z,5.22
2023-02-06T16:18:42.327Z,3.88
2023-02-06T16:20:46.508Z,3.75
2023-02-06T16:22:49.047Z,3.85
2023-02-06T16:24:53.658Z,4.55
2023-02-06T16:26:56.212Z,4.32
2023-02-06T16:29:00.986Z,4.05
2023-02-06T16:31:05.488Z,4.05
2023-02-06T16:33:30.144Z,5.15
2023-02-06T16:35:35.865Z,4.07
2023-02-06T16:37:39.245Z,4.22
2023-02-06T16:39:42.909Z,3.90
2023-02-06T16:41:51.106Z,3.60
2023-02-06T16:43:55.095Z,4.50
2023-02-06T16:46:00.598Z,3.88
2023-02-06T16:48:03.509Z,4.63
2023-02-06T16:50:06.387Z,4.45
2023-02-06T16:52:17.651Z,4.43
2023-02-06T16:54:24.950Z,4.28
2023-02-06T16:56:27.431Z,3.95
2023-02-06T16:58:31.908Z,4.20
2023-02-06T17:00:34.612Z,4.40
2023-02-06T17:02:37.575Z,3.95
2023-02-06T17:04:40.014Z,4.88
2023-02-06T17:06:44.974Z,4.10
2023-02-06T17:08:50.433Z,4.90
2023-02-06T17:10:52.933Z,4.80
2023-02-06T17:12:55.279Z,4.13
2023-02-06T17:14:58.520Z,4.82
2023-02-06T17:17:02.053Z,5.30
2023-02-06T17:19:04.599Z,5.57
2023-02-06T17:21:06.975Z,4.72
2023-02-06T17:23:12.423Z,4.95
2023-02-06T17:25:17.442Z,5.25
2023-02-06T17:27:21.755Z,5.75
2023-02-06T17:31:26.388Z,4.78
2023-02-06T17:33:28.891Z,6.68
2023-02-06T17:35:32.042Z,5.68
2023-02-06T17:37:36.430Z,4.93
2023-02-06T17:39:38.897Z,6.07
2023-02-06T17:41:43.936Z,5.93
2023-02-06T17:43:46.285Z,7.07
2023-02-06T17:45:48.823Z,5.93
2023-02-06T17:47:51.191Z,5.85
2023-02-06T17:49:53.565Z,5.28
2023-02-06T17:51:56.724Z,5.93
2023-02-06T17:54:00.043Z,6.10
2023-02-06T17:56:05.464Z,5.88
2023-02-06T17:58:10.718Z,5.80
2023-02-06T18:00:16.302Z,6.35
2023-02-06T18:02:18.805Z,5.55
2023-02-06T18:04:21.407Z,5.07
2023-02-06T18:06:23.746Z,4.82
2023-02-06T18:08:27.056Z,5.28
2023-02-06T18:10:29.469Z,5.57
2023-02-06T18:12:31.944Z,4.95
2023-02-06T18:14:37.107Z,5.32
2023-02-06T18:16:42.894Z,5.25
2023-02-06T18:18:45.747Z,4.88
2023-02-06T18:20:48.424Z,5.75
2023-02-06T18:22:50.880Z,5.60
2023-02-06T18:24:53.242Z,5.38
2023-02-06T18:26:55.681Z,5.85
2023-02-06T18:28:58.109Z,5.60
2023-02-06T18:31:03.292Z,5.68
2023-02-06T18:33:05.922Z,5.50
2023-02-06T18:35:09.304Z,6.57
2023-02-06T18:37:11.713Z,6.18
2023-02-06T18:39:14.967Z,5.97
2023-02-06T18:41:36.052Z,5.45
2023-02-06T18:43:38.351Z,5.57
2023-02-06T18:45:41.438Z,5.18
2023-02-06T18:47:46.479Z,6.07
2023-02-06T18:49:48.901Z,6.32
2023-02-06T18:51:51.267Z,6.00
2023-02-06T18:53:57.251Z,6.35
2023-02-06T18:56:01.617Z,6.60
2023-02-06T18:58:04.760Z,5.80
2023-02-06T19:00:09.088Z,5.88
2023-02-06T19:04:16.588Z,5.85
2023-02-06T19:06:22.508Z,5.95
2023-02-06T19:08:24.957Z,7.22
2023-02-06T19:10:27.296Z,6.72
2023-02-06T19:12:29.971Z,6.10
2023-02-06T19:14:33.497Z,6.05
2023-02-06T19:16:38.536Z,7.78
2023-02-06T19:18:42.804Z,6.68
2023-02-06T19:20:47.781Z,6.55
2023-02-06T19:22:50.195Z,6.10
2023-02-06T19:24:53.487Z,6.82
2023-02-06T19:26:56.511Z,6.70
2023-02-06T19:28:59.352Z,6.13
2023-02-06T19:31:02.056Z,5.68
2023-02-06T19:33:04.504Z,6.22
2023-02-06T19:35:07.416Z,5.40
2023-02-06T19:37:13.547Z,6.15
2023-02-06T19:39:16.784Z,6.20
2023-02-06T19:41:21.412Z,7.38
2023-02-06T19:43:23.777Z,5.70
2023-02-06T19:45:26.170Z,5.25
2023-02-06T19:47:28.621Z,6.75
2023-02-06T19:49:31.244Z,5.47
2023-02-06T19:51:36.258Z,5.28
2023-02-06T19:53:47.690Z,5.45
2023-02-06T19:55:50.143Z,5.30
2023-02-06T19:57:52.508Z,5.72
2023-02-06T19:59:55.321Z,5.50
2023-02-06T20:01:59.613Z,4.90
2023-02-06T20:06:07.416Z,6.13
2023-02-06T20:08:10.100Z,6.55
2023-02-06T20:10:15.227Z,6.70
2023-02-06T20:12:18.134Z,7.43
2023-02-06T20:14:21.099Z,5.07
2023-02-06T20:16:25.540Z,5.75
2023-02-06T20:18:28.033Z,7.00
2023-02-06T20:20:33.395Z,5.22
2023-02-06T20:22:35.807Z,6.32
2023-02-06T20:24:38.269Z,5.72
2023-02-06T20:26:43.548Z,6.70
2023-02-06T20:28:46.512Z,6.07
2023-02-06T20:30:49.482Z,6.05
2023-02-06T20:32:51.906Z,6.95
2023-02-06T20:34:54.462Z,7.15
2023-02-06T20:36:57.111Z,6.40
2023-02-06T20:39:00.556Z,6.68
2023-02-06T20:41:05.365Z,6.68
2023-02-06T20:43:10.501Z,6.07
2023-02-06T20:45:13.148Z,6.60
2023-02-06T20:47:19.889Z,5.60
2023-02-06T20:49:24.568Z,5.78
2023-02-06T20:51:27.768Z,7.13
2023-02-06T20:53:30.768Z,6.72
2023-02-06T20:55:33.131Z,5.38
2023-02-06T20:57:36.530Z,6.35
2023-02-06T20:59:41.477Z,6.77
2023-02-06T21:01:44.496Z,6.10
2023-02-06T21:03:47.180Z,6.68
2023-02-06T21:05:56.800Z,6.25
2023-02-06T21:07:59.890Z,6.15
2023-02-06T21:10:03.858Z,5.90
2023-02-06T21:12:06.643Z,5.63
2023-02-06T21:14:10.226Z,5.72
2023-02-06T21:16:15.193Z,5.15
2023-02-06T21:18:17.584Z,6.45
2023-02-06T21:20:19.997Z,5.63
2023-02-06T21:22:22.426Z,5.25
2023-02-06T21:24:24.811Z,5.93
2023-02-06T21:26:28.561Z,5.55
2023-02-06T21:28:31.292Z,5.10
2023-02-06T21:30:33.694Z,5.75
2023-02-06T21:32:38.669Z,5.40
2023-02-06T21:34:41.464Z,4.93
2023-02-06T21:36:44.175Z,5.57
2023-02-06T21:38:46.610Z,4.95
2023-02-06T21:40:49.527Z,5.03
2023-02-06T21:42:52.668Z,5.50
2023-02-06T21:44:55.011Z,5.32
2023-02-06T21:46:57.331Z,4.72
2023-02-06T21:49:02.346Z,5.50
2023-02-06T21:51:08.494Z,5.05
2023-02-06T21:53:11.364Z,4.90
2023-02-06T21:55:14.946Z,5.07
2023-02-06T21:57:17.411Z,5.10
2023-02-06T21:59:19.722Z,5.50
2023-02-06T22:01:25.250Z,6.28
2023-02-06T22:03:27.709Z,5.70
2023-02-06T22:05:32.604Z,6.68
2023-02-06T22:07:36.420Z,6.30
2023-02-06T22:09:38.767Z,6.88
2023-02-06T22:11:41.709Z,7.03
2023-02-06T22:13:44.980Z,7.50
2023-02-06T22:15:51.597Z,7.55
2023-02-06T22:17:54.086Z,7.35
2023-02-06T22:19:59.540Z,7.15
2023-02-06T22:22:06.034Z,6.97
2023-02-06T22:24:11.192Z,7.70
2023-02-06T22:26:15.241Z,7.22
2023-02-06T22:28:17.663Z,8.57
2023-02-06T22:30:20.330Z,6.95
2023-02-06T22:32:22.669Z,7.20
2023-02-06T22:34:25.017Z,7.55
2023-02-06T22:36:29.066Z,7.53
2023-02-06T22:38:34.892Z,7.07
2023-02-06T22:40:37.270Z,6.97
2023-02-06T22:42:39.602Z,6.07
2023-02-06T22:44:42.809Z,6.38
2023-02-06T22:46:47.402Z,7.13
2023-02-06T22:48:50.696Z,7.20
2023-02-06T22:50:53.575Z,6.70
2023-02-06T22:53:14.713Z,7.75
2023-02-06T22:55:19.760Z,6.60
2023-02-06T22:57:22.131Z,7.57
2023-02-06T22:59:25.868Z,7.43
2023-02-06T23:01:31.927Z,6.88
2023-02-06T23:03:34.544Z,6.45
2023-02-06T23:05:37.208Z,7.00
2023-02-06T23:07:39.922Z,7.47
2023-02-06T23:09:42.650Z,7.28
2023-02-06T23:11:48.414Z,8.02
2023-02-06T23:13:55.244Z,7.93
2023-02-06T23:15:58.645Z,7.32
2023-02-06T23:18:00.956Z,7.73
2023-02-06T23:20:03.425Z,8.85
2023-02-06T23:22:06.017Z,8.15
2023-02-06T23:24:09.854Z,7.63
2023-02-06T23:26:14.027Z,7.32
2023-02-06T23:28:19.301Z,8.32
2023-02-06T23:30:21.920Z,9.43
2023-02-06T23:32:24.205Z,8.73
2023-02-06T23:34:26.570Z,9.57
2023-02-06T23:36:29.432Z,9.65
2023-02-06T23:38:32.210Z,11.13
2023-02-06T23:40:35.272Z,10.23
2023-02-06T23:42:37.683Z,11.93
2023-02-06T23:44:42.994Z,11.30
2023-02-06T23:46:46.210Z,10.07
2023-02-06T23:48:52.367Z,9.75
2023-02-06T23:50:54.725Z,10.77
2023-02-06T23:52:57.091Z,9.48
2023-02-06T23:54:59.420Z,11.25
2023-02-06T23:57:01.808Z,10.27
2023-02-06T23:59:05.516Z,9.07
